createdAt,value
2018-08-10T00:02:29.004Z,55.90
2018-08-10T00:06:02.232Z,56.00
2018-08-10T00:09:35.497Z,56.20
2018-08-10T00:13:08.780Z,56.20
2018-08-10T00:16:42.029Z,56.40
2018-08-10T00:20:16.141Z,56.50
2018-08-10T00:23:49.409Z,56.40
2018-08-10T00:27:22.670Z,56.40
2018-08-10T00:30:55.953Z,56.50
2018-08-10T00:34:29.194Z,56.40
2018-08-10T00:38:02.449Z,56.50
2018-08-10T00:41:35.840Z,56.40
2018-08-10T00:45:09.762Z,56.40
2018-08-10T00:48:43.030Z,56.40
2018-08-10T00:52:16.290Z,56.40
2018-08-10T00:55:49.548Z,56.30
2018-08-10T00:59:22.897Z,56.30
2018-08-10T01:02:56.150Z,56.40
2018-08-10T01:06:29.394Z,56.40
2018-08-10T01:10:02.661Z,56.40
2018-08-10T01:13:36.017Z,56.40
2018-08-10T01:17:09.182Z,56.20
2018-08-10T01:20:42.422Z,56.80
2018-08-10T01:24:15.666Z,56.20
2018-08-10T01:27:55.092Z,56.30
2018-08-10T01:31:28.341Z,56.30
2018-08-10T01:35:01.582Z,56.10
2018-08-10T01:38:34.838Z,56.20
2018-08-10T01:42:08.141Z,56.10
2018-08-10T01:45:41.401Z,55.80
2018-08-10T01:49:14.648Z,56.00
2018-08-10T01:52:47.903Z,56.20
2018-08-10T01:56:21.157Z,56.30
2018-08-10T01:59:54.425Z,56.20
2018-08-10T02:03:27.682Z,56.20
2018-08-10T02:07:00.924Z,56.30
2018-08-10T02:10:34.174Z,56.10
2018-08-10T02:14:07.468Z,55.90
2018-08-10T02:17:40.773Z,56.10
2018-08-10T02:21:14.018Z,56.00
2018-08-10T02:24:47.293Z,56.60
2018-08-10T02:28:20.544Z,55.70
2018-08-10T02:31:53.802Z,55.10
2018-08-10T02:35:27.046Z,54.80
2018-08-10T02:39:00.306Z,54.90
2018-08-10T02:42:33.559Z,54.90
2018-08-10T02:46:06.794Z,55.10
2018-08-10T02:49:40.053Z,55.30
2018-08-10T02:53:13.345Z,55.10
2018-08-10T02:56:46.586Z,55.20
2018-08-10T03:00:19.853Z,55.30
2018-08-10T03:03:53.213Z,55.30
2018-08-10T03:07:26.461Z,55.40
2018-08-10T03:10:59.729Z,55.40
2018-08-10T03:14:32.977Z,55.50
2018-08-10T03:18:06.703Z,55.60
2018-08-10T03:21:39.948Z,55.20
2018-08-10T03:25:14.246Z,55.40
2018-08-10T03:28:47.501Z,55.50
2018-08-10T03:32:20.753Z,55.50
2018-08-10T03:35:54.117Z,55.30
2018-08-10T03:39:27.360Z,55.20
2018-08-10T03:43:00.617Z,56.30
2018-08-10T03:46:33.860Z,55.80
2018-08-10T03:50:08.573Z,56.20
2018-08-10T03:53:41.814Z,56.00
2018-08-10T03:57:15.045Z,56.40
2018-08-10T04:00:48.306Z,57.00
2018-08-10T04:04:21.542Z,57.00
2018-08-10T04:07:54.789Z,56.70
2018-08-10T04:11:28.016Z,57.20
2018-08-10T04:15:01.254Z,57.40
2018-08-10T04:18:34.568Z,57.70
2018-08-10T04:22:08.081Z,57.90
2018-08-10T04:25:41.328Z,58.30
2018-08-10T04:29:14.569Z,58.60
2018-08-10T04:32:47.831Z,58.80
2018-08-10T04:36:21.099Z,59.00
2018-08-10T04:39:54.328Z,59.30
2018-08-10T04:43:27.584Z,59.20
2018-08-10T04:47:00.818Z,59.10
2018-08-10T04:50:34.224Z,59.10
2018-08-10T04:54:07.494Z,59.20
2018-08-10T04:57:41.092Z,59.30
2018-08-10T05:01:14.343Z,59.20
2018-08-10T05:04:47.609Z,59.30
2018-08-10T05:08:20.858Z,59.80
2018-08-10T05:11:54.124Z,59.30
2018-08-10T05:15:27.401Z,59.00
2018-08-10T05:19:00.620Z,58.70
2018-08-10T05:22:33.912Z,58.20
2018-08-10T05:26:07.213Z,58.10
2018-08-10T05:29:40.438Z,57.80
2018-08-10T05:33:13.687Z,57.90
2018-08-10T05:36:46.961Z,57.40
2018-08-10T05:40:20.281Z,57.00
2018-08-10T05:43:53.559Z,56.90
2018-08-10T05:47:26.770Z,57.00
2018-08-10T05:51:00.084Z,57.00
2018-08-10T05:54:34.116Z,56.30
2018-08-10T05:58:07.582Z,56.60
2018-08-10T06:01:40.832Z,56.30
2018-08-10T06:05:14.064Z,55.30
2018-08-10T06:08:47.320Z,54.30
2018-08-10T06:12:20.561Z,54.80
2018-08-10T06:15:53.886Z,55.00
2018-08-10T06:19:27.183Z,55.30
2018-08-10T06:23:00.457Z,55.20
2018-08-10T06:26:34.028Z,55.00
2018-08-10T06:30:09.489Z,55.40
2018-08-10T06:33:42.804Z,55.30
2018-08-10T06:37:16.012Z,54.50
2018-08-10T06:40:49.244Z,54.50
2018-08-10T06:44:22.482Z,54.20
2018-08-10T06:47:55.725Z,54.20
2018-08-10T06:51:28.949Z,54.30
2018-08-10T06:55:02.508Z,54.40
2018-08-10T06:58:35.940Z,54.30
2018-08-10T07:02:09.166Z,54.20
2018-08-10T07:05:42.421Z,53.80
2018-08-10T07:09:15.657Z,54.30
2018-08-10T07:12:48.920Z,54.80
2018-08-10T07:16:22.156Z,55.20
2018-08-10T07:19:55.384Z,54.10
2018-08-10T07:23:28.606Z,54.00
2018-08-10T07:27:01.885Z,53.60
2018-08-10T07:30:35.133Z,53.20
2018-08-10T07:34:09.339Z,53.70
2018-08-10T07:37:42.581Z,53.90
2018-08-10T07:41:15.813Z,54.20
2018-08-10T07:44:49.058Z,54.30
2018-08-10T07:48:22.290Z,54.00
2018-08-10T07:51:55.535Z,53.70
2018-08-10T07:55:28.788Z,53.70
2018-08-10T07:59:02.097Z,53.40
2018-08-10T08:02:35.399Z,52.00
2018-08-10T08:06:08.712Z,52.30
2018-08-10T08:09:41.964Z,51.40
2018-08-10T08:13:15.160Z,51.00
2018-08-10T08:16:48.420Z,50.60
2018-08-10T08:20:21.660Z,50.70
2018-08-10T08:23:54.892Z,50.70
2018-08-10T08:27:28.135Z,50.40
2018-08-10T08:31:02.221Z,49.50
2018-08-10T08:34:35.503Z,48.70
2018-08-10T08:38:20.099Z,48.90
2018-08-10T08:41:53.356Z,49.30
2018-08-10T08:45:53.492Z,49.50
2018-08-10T08:49:26.593Z,49.00
2018-08-10T08:52:59.907Z,48.80
2018-08-10T08:56:41.008Z,47.70
2018-08-10T09:00:14.930Z,47.00
2018-08-10T09:05:00.726Z,46.50
2018-08-10T09:08:33.970Z,46.50
2018-08-10T09:12:07.221Z,46.20
2018-08-10T09:15:40.487Z,45.40
2018-08-10T09:19:13.717Z,45.30
2018-08-10T09:22:46.965Z,45.10
2018-08-10T09:26:20.245Z,45.10
2018-08-10T09:29:53.437Z,44.90
2018-08-10T09:33:26.693Z,45.00
2018-08-10T09:37:00.339Z,45.30
2018-08-10T09:40:33.570Z,45.00
2018-08-10T09:44:06.861Z,44.20
2018-08-10T09:47:40.356Z,43.70
2018-08-10T09:51:13.581Z,43.10
2018-08-10T09:55:30.435Z,42.60
2018-08-10T09:59:03.781Z,42.00
2018-08-10T10:02:37.101Z,41.50
2018-08-10T10:06:10.336Z,40.90
2018-08-10T10:09:43.594Z,40.30
2018-08-10T10:13:16.864Z,40.20
2018-08-10T10:16:50.120Z,39.70
2018-08-10T10:20:23.361Z,39.30
2018-08-10T10:23:56.612Z,38.90
2018-08-10T10:27:29.851Z,38.10
2018-08-10T10:31:03.112Z,36.30
2018-08-10T10:34:36.365Z,35.90
2018-08-10T10:38:09.628Z,35.70
2018-08-10T10:41:42.853Z,36.10
2018-08-10T10:45:16.456Z,35.80
2018-08-10T10:48:49.697Z,36.00
2018-08-10T10:52:22.941Z,35.40
2018-08-10T10:55:56.277Z,34.20
2018-08-10T10:59:29.518Z,33.90
2018-08-10T11:03:02.773Z,33.90
2018-08-10T11:06:36.009Z,33.60
2018-08-10T11:10:10.917Z,33.60
2018-08-10T11:13:44.149Z,33.30
2018-08-10T11:17:17.396Z,33.90
2018-08-10T11:20:50.633Z,34.20
2018-08-10T11:24:23.887Z,34.50
2018-08-10T11:27:57.135Z,35.00
2018-08-10T11:31:30.368Z,35.10
2018-08-10T11:35:03.904Z,35.50
2018-08-10T11:38:37.194Z,35.50
2018-08-10T11:42:10.432Z,35.50
2018-08-10T11:45:43.708Z,35.70
2018-08-10T11:49:16.932Z,35.20
2018-08-10T11:52:50.163Z,35.10
2018-08-10T11:56:23.419Z,35.70
2018-08-10T11:59:56.701Z,35.30
2018-08-10T12:03:29.914Z,35.50
2018-08-10T12:07:03.169Z,35.60
2018-08-10T12:10:36.409Z,35.30
2018-08-10T12:14:10.112Z,35.00
2018-08-10T12:17:43.383Z,34.40
2018-08-10T12:21:16.613Z,34.50
2018-08-10T12:24:49.985Z,34.70
2018-08-10T12:28:23.164Z,34.60
2018-08-10T12:31:56.422Z,34.50
2018-08-10T12:35:29.673Z,34.20
2018-08-10T12:39:02.938Z,33.50
2018-08-10T12:42:36.200Z,33.00
2018-08-10T12:46:09.453Z,33.20
2018-08-10T12:49:42.693Z,33.70
2018-08-10T12:53:15.943Z,33.60
2018-08-10T12:56:49.173Z,33.10
2018-08-10T13:00:22.405Z,33.10
2018-08-10T13:03:55.641Z,33.20
2018-08-10T13:07:28.880Z,33.30
2018-08-10T13:11:02.117Z,32.90
2018-08-10T13:14:35.389Z,32.80
2018-08-10T13:18:08.614Z,32.80
2018-08-10T13:21:41.876Z,32.40
2018-08-10T13:25:15.118Z,32.10
2018-08-10T13:28:48.350Z,32.00
2018-08-10T13:32:21.612Z,32.10
2018-08-10T13:35:54.876Z,33.00
2018-08-10T13:39:28.102Z,32.10
2018-08-10T13:43:01.341Z,31.80
2018-08-10T13:46:35.078Z,31.70
2018-08-10T13:50:10.384Z,31.80
2018-08-10T13:53:43.669Z,31.80
2018-08-10T13:57:16.909Z,31.70
2018-08-10T14:00:50.146Z,32.20
2018-08-10T14:04:23.458Z,31.80
2018-08-10T14:07:56.764Z,31.50
2018-08-10T14:11:30.006Z,30.60
2018-08-10T14:15:03.289Z,29.40
2018-08-10T14:18:36.553Z,29.00
2018-08-10T14:22:09.803Z,29.20
2018-08-10T14:25:43.074Z,29.00
2018-08-10T14:29:16.339Z,29.40
2018-08-10T14:32:49.607Z,29.40
2018-08-10T14:36:22.840Z,29.10
2018-08-10T14:39:56.077Z,28.90
2018-08-10T14:43:29.308Z,28.90
2018-08-10T14:47:02.660Z,28.70
2018-08-10T14:50:35.840Z,28.60
2018-08-10T14:54:09.096Z,28.30
2018-08-10T14:57:42.362Z,27.20
2018-08-10T15:01:15.601Z,27.10
2018-08-10T15:04:49.872Z,27.20
2018-08-10T15:08:23.108Z,27.70
2018-08-10T15:11:56.496Z,27.70
2018-08-10T15:15:29.672Z,27.70
2018-08-10T15:19:02.966Z,27.90
2018-08-10T15:22:36.270Z,28.20
2018-08-10T15:26:09.517Z,28.50
2018-08-10T15:29:42.825Z,28.90
2018-08-10T15:33:16.106Z,29.00
2018-08-10T15:36:49.466Z,29.30
2018-08-10T15:40:22.726Z,29.00
2018-08-10T15:43:55.975Z,28.60
2018-08-10T15:47:29.277Z,27.70
2018-08-10T15:51:02.532Z,27.30
2018-08-10T15:54:35.791Z,27.70
2018-08-10T15:58:09.064Z,27.90
2018-08-10T16:01:42.317Z,27.70
2018-08-10T16:05:15.566Z,27.30
2018-08-10T16:08:48.817Z,27.00
2018-08-10T16:12:22.037Z,26.10
2018-08-10T16:15:55.318Z,25.80
2018-08-10T16:19:28.571Z,26.00
2018-08-10T16:23:01.832Z,25.60
2018-08-10T16:26:35.069Z,25.70
2018-08-10T16:30:09.948Z,25.80
2018-08-10T16:33:43.189Z,26.00
2018-08-10T16:37:16.446Z,26.40
2018-08-10T16:40:49.677Z,26.70
2018-08-10T16:44:22.960Z,27.20
2018-08-10T16:47:56.201Z,27.60
2018-08-10T16:51:29.468Z,28.20
2018-08-10T16:55:03.116Z,28.50
2018-08-10T16:58:36.381Z,28.70
2018-08-10T17:02:10.298Z,28.90
2018-08-10T17:05:43.821Z,29.40
2018-08-10T17:09:17.090Z,29.80
2018-08-10T17:12:50.349Z,29.90
2018-08-10T17:16:24.002Z,30.00
2018-08-10T17:19:57.236Z,30.20
2018-08-10T17:23:30.487Z,30.60
2018-08-10T17:27:03.773Z,30.70
2018-08-10T17:30:37.053Z,30.60
2018-08-10T17:34:10.312Z,30.80
2018-08-10T17:37:44.809Z,31.00
2018-08-10T17:41:18.052Z,31.20
2018-08-10T17:44:51.320Z,31.20
2018-08-10T17:48:24.561Z,31.40
2018-08-10T17:51:57.810Z,32.30
2018-08-10T17:55:31.072Z,31.80
2018-08-10T17:59:04.458Z,31.90
2018-08-10T18:02:37.683Z,32.00
2018-08-10T18:06:10.934Z,32.20
2018-08-10T18:09:44.209Z,32.20
2018-08-10T18:13:17.448Z,32.20
2018-08-10T18:16:50.717Z,32.40
2018-08-10T18:20:23.965Z,32.40
2018-08-10T18:23:57.217Z,32.60
2018-08-10T18:27:30.542Z,32.40
2018-08-10T18:31:03.818Z,32.50
2018-08-10T18:34:37.091Z,32.50
2018-08-10T18:38:10.323Z,32.80
2018-08-10T18:41:43.580Z,33.00
2018-08-10T18:45:18.485Z,33.00
2018-08-10T18:48:51.764Z,33.10
2018-08-10T18:52:25.007Z,33.00
2018-08-10T18:55:58.272Z,33.10
2018-08-10T18:59:31.590Z,33.10
2018-08-10T19:03:04.929Z,33.10
2018-08-10T19:06:38.350Z,33.10
2018-08-10T19:10:13.337Z,33.20
2018-08-10T19:13:46.636Z,33.40
2018-08-10T19:17:19.901Z,34.00
2018-08-10T19:20:53.141Z,34.20
2018-08-10T19:24:26.429Z,34.30
2018-08-10T19:27:59.659Z,34.10
2018-08-10T19:31:33.744Z,34.30
2018-08-10T19:35:07.138Z,35.30
2018-08-10T19:38:40.377Z,37.30
2018-08-10T19:42:13.652Z,39.30
2018-08-10T19:45:46.896Z,41.00
2018-08-10T19:49:20.151Z,41.90
2018-08-10T19:52:53.758Z,42.10
2018-08-10T19:56:27.025Z,42.80
2018-08-10T20:00:00.288Z,43.20
2018-08-10T20:03:33.589Z,43.60
2018-08-10T20:07:07.159Z,43.90
2018-08-10T20:10:40.395Z,44.50
2018-08-10T20:14:13.669Z,45.20
2018-08-10T20:17:46.962Z,45.70
2018-08-10T20:21:20.235Z,46.30
2018-08-10T20:24:53.488Z,46.70
2018-08-10T20:28:26.864Z,47.20
2018-08-10T20:32:00.078Z,47.70
2018-08-10T20:35:33.327Z,48.50
2018-08-10T20:39:09.124Z,48.30
2018-08-10T20:42:43.713Z,48.70
2018-08-10T20:46:17.526Z,49.20
2018-08-10T20:49:50.814Z,49.80
2018-08-10T20:53:24.516Z,49.90
2018-08-10T20:56:58.102Z,50.40
2018-08-10T21:00:32.493Z,50.70
2018-08-10T21:04:05.834Z,50.90
2018-08-10T21:07:39.211Z,51.10
2018-08-10T21:11:12.668Z,51.30
2018-08-10T21:14:46.009Z,51.40
2018-08-10T21:18:19.269Z,51.40
2018-08-10T21:21:52.541Z,51.40
2018-08-10T21:25:25.801Z,51.60
2018-08-10T21:28:59.217Z,51.80
2018-08-10T21:32:32.448Z,52.00
2018-08-10T21:36:05.858Z,52.00
2018-08-10T21:39:39.112Z,52.20
2018-08-10T21:43:12.348Z,52.30
2018-08-10T21:46:45.598Z,52.60
2018-08-10T21:50:18.830Z,52.70
2018-08-10T21:53:52.088Z,52.90
2018-08-10T21:57:25.337Z,53.20
2018-08-10T22:01:01.526Z,53.40
2018-08-10T22:04:34.869Z,53.70
2018-08-10T22:08:08.114Z,53.90
2018-08-10T22:11:41.376Z,54.20
2018-08-10T22:15:20.152Z,54.30
2018-08-10T22:19:15.419Z,54.60
2018-08-10T22:22:48.679Z,54.80
2018-08-10T22:26:21.954Z,55.10
2018-08-10T22:29:55.212Z,55.40
2018-08-10T22:33:28.437Z,55.60
2018-08-10T22:37:01.684Z,55.90
2018-08-10T22:40:35.098Z,56.20
2018-08-10T22:44:08.405Z,56.40
2018-08-10T22:47:41.653Z,56.50
2018-08-10T22:51:14.869Z,56.80
2018-08-10T22:54:48.118Z,57.10
2018-08-10T22:58:21.362Z,57.20
2018-08-10T23:01:54.656Z,57.50
2018-08-10T23:05:27.887Z,57.60
2018-08-10T23:09:01.150Z,57.80
2018-08-10T23:12:34.553Z,57.90
2018-08-10T23:16:07.812Z,58.10
2018-08-10T23:19:41.048Z,58.40
2018-08-10T23:23:14.300Z,58.80
2018-08-10T23:26:47.533Z,59.00
2018-08-10T23:30:20.803Z,59.10
2018-08-10T23:33:54.042Z,59.40
2018-08-10T23:37:27.300Z,59.60
2018-08-10T23:41:00.544Z,59.60
2018-08-10T23:44:33.805Z,59.90
2018-08-10T23:48:07.048Z,60.10
2018-08-10T23:51:40.305Z,60.30
2018-08-10T23:55:15.253Z,60.50
2018-08-10T23:58:48.593Z,60.60
